createdAt,value
2023-12-21T00:01:29.689Z,9.68
2023-12-21T00:16:31.878Z,9.57
2023-12-21T00:31:34.100Z,9.98
2023-12-21T00:46:36.268Z,9.67
2023-12-21T01:01:38.628Z,9.75
2023-12-21T01:16:40.929Z,9.48
2023-12-21T01:31:43.478Z,9.73
2023-12-21T01:46:45.840Z,9.76
2023-12-21T02:01:48.183Z,9.5
2023-12-21T02:16:50.232Z,9.43
2023-12-21T02:31:52.577Z,9.29
2023-12-21T02:46:54.752Z,9.39
2023-12-21T03:01:56.830Z,9.46
2023-12-21T03:16:59.006Z,9.59
2023-12-21T03:32:01.101Z,9.3
2023-12-21T03:47:03.090Z,9.15
2023-12-21T04:02:05.349Z,9.92
2023-12-21T04:17:07.489Z,9.53
2023-12-21T04:32:09.672Z,9.43
2023-12-21T04:47:22.453Z,9.21
2023-12-21T05:02:26.237Z,9.65
2023-12-21T05:17:28.425Z,9.38
2023-12-21T05:32:30.677Z,9.72
2023-12-21T05:47:33.051Z,9.08
2023-12-21T06:02:35.382Z,8.96
2023-12-21T06:17:37.708Z,9.05
2023-12-21T06:32:39.824Z,9.23
2023-12-21T06:47:41.975Z,9.14
2023-12-21T07:02:44.251Z,9.06
2023-12-21T07:17:46.254Z,8.69
2023-12-21T07:32:48.613Z,9.01
2023-12-21T07:47:50.787Z,8.7
2023-12-21T08:02:52.852Z,8.95
2023-12-21T08:17:55.182Z,9.32
2023-12-21T08:32:57.236Z,8.93
2023-12-21T08:47:59.286Z,9.39
2023-12-21T09:03:01.273Z,9.3
2023-12-21T09:18:03.332Z,8.96
2023-12-21T09:33:05.393Z,9.04
2023-12-21T09:48:07.492Z,8.79
2023-12-21T10:03:09.769Z,9.22
2023-12-21T10:18:12.081Z,9.12
2023-12-21T10:33:14.356Z,9.19
2023-12-21T10:48:16.377Z,8.97
2023-12-21T11:03:18.677Z,9.33
2023-12-21T11:18:20.777Z,9.19
2023-12-21T11:33:22.842Z,8.72
2023-12-21T11:48:24.902Z,8.69
2023-12-21T12:03:26.913Z,8.91
2023-12-21T12:18:29.012Z,9.03
2023-12-21T12:33:31.177Z,9.06
2023-12-21T12:48:33.451Z,8.88
2023-12-21T13:03:35.521Z,9.05
2023-12-21T13:18:37.513Z,8.76
2023-12-21T13:33:39.632Z,8.18
2023-12-21T13:48:41.810Z,8.7
2023-12-21T14:03:43.903Z,9.01
2023-12-21T14:18:45.919Z,8.73
2023-12-21T14:33:47.990Z,9.13
2023-12-21T14:48:50.084Z,8.76
2023-12-21T15:03:52.197Z,8.94
2023-12-21T15:18:54.252Z,9.54
2023-12-21T15:33:56.247Z,9.11
2023-12-21T15:48:58.309Z,9.54
2023-12-21T16:04:00.433Z,9.56
2023-12-21T16:19:02.505Z,9.19
2023-12-21T16:34:04.584Z,9.2
2023-12-21T16:49:06.777Z,8.6
2023-12-21T17:04:08.937Z,9.24
2023-12-21T17:19:11.176Z,9.2
2023-12-21T17:34:17.382Z,9.59
2023-12-21T17:49:21.583Z,9.76
2023-12-21T18:04:23.634Z,9.83
2023-12-21T18:19:25.711Z,9.8
2023-12-21T18:34:27.948Z,9.45
2023-12-21T18:49:30.193Z,9.96
2023-12-21T19:04:32.460Z,10.24
2023-12-21T19:19:34.658Z,10.47
2023-12-21T19:34:36.818Z,9.83
2023-12-21T19:49:38.886Z,9.43
2023-12-21T20:04:41.109Z,9.54
2023-12-21T20:19:43.350Z,9.66
2023-12-21T20:34:45.436Z,9.89
2023-12-21T20:49:47.487Z,10.23
2023-12-21T21:04:49.692Z,10.41
2023-12-21T21:19:51.894Z,9.28
2023-12-21T21:34:53.988Z,9.75
2023-12-21T21:49:56.117Z,9.85
2023-12-21T22:04:58.487Z,9.56
2023-12-21T22:20:00.647Z,10.5
2023-12-21T22:35:02.676Z,10.13
2023-12-21T22:50:04.729Z,9.94
2023-12-21T23:05:06.968Z,9.8
2023-12-21T23:20:09.160Z,10.15
2023-12-21T23:35:17.658Z,9.43
2023-12-21T23:50:21.662Z,9.69
